Time;durP1;ratioP1;P1;durP2;ratioP2;P2;SDS_P1;SDS_P2;PMS_P1;PMS_P2;Temp;Humidity;BMP_temperature;BMP_pressure;BME280_temperature;BME280_humidity;BME280_pressure;Samples;Min_cycle;Max_cycle;Signal;HPM_P1;HPM_P2
2024/04/09 00:01:01;;;;;;;;;;;;;;;15.59;90.93;100371.37;107001;1261;22434;-45
2024/04/09 00:03:29;;;;;;;;;;;;;;;15.58;91.14;100367.03;106993;1270;22794;-45
2024/04/09 00:05:59;;;;;;;;;;;;;;;15.57;91.28;100352.15;107063;1267;24166;-50
2024/04/09 00:08:27;;;;;;;;;;;;;;;15.57;91.29;100331.43;106877;1261;24036;-50
2024/04/09 00:10:54;;;;;;;;;;;;;;;15.55;90.82;100331.95;106896;1273;22479;-49
2024/04/09 00:13:21;;;;;;;;;;;;;;;15.54;90.73;100343.45;106946;1267;22628;-51
2024/04/09 00:15:49;;;;;;;;;;;;;;;15.54;90.57;100343.86;106840;1269;25377;-50
2024/04/09 00:18:17;;;;;;;;;;;;;;;15.51;90.55;100332.86;106883;1270;22518;-48
2024/04/09 00:20:44;;;;;;;;;;;;;;;15.48;90.23;100326.51;106991;1270;22496;-51
2024/04/09 00:23:16;;;;;;;;;;;;;;;15.45;90.01;100324.48;106925;1264;25289;-48
2024/04/09 00:25:45;;;;;;;;;;;;;;;15.44;90.06;100318.55;106971;1270;23216;-50
2024/04/09 00:28:13;;;;;;;;;;;;;;;15.43;90.15;100300.28;106872;1267;22498;-49
2024/04/09 00:30:40;;;;;;;;;;;;;;;15.42;90.31;100295.35;106756;1261;22511;-50
2024/04/09 00:33:09;;;;;;;;;;;;;;;15.42;90.40;100297.10;106906;1267;24170;-49
2024/04/09 00:35:37;;;;;;;;;;;;;;;15.40;90.39;100294.25;106881;1267;22906;-49
2024/04/09 00:38:06;;;;;;;;;;;;;;;15.39;90.39;100298.08;106945;1272;22805;-48
2024/04/09 00:40:33;;;;;;;;;;;;;;;15.37;90.58;100307.52;107153;1274;22808;-44
2024/04/09 00:43:02;;;;;;;;;;;;;;;15.35;90.75;100329.38;106898;1275;25210;-45
2024/04/09 00:45:29;;;;;;;;;;;;;;;15.33;90.84;100347.07;106845;1270;22678;-46
2024/04/09 00:48:00;;;;;;;;;;;;;;;15.29;90.75;100355.89;107026;1267;24234;-48
2024/04/09 00:50:29;;;;;;;;;;;;;;;15.28;90.88;100364.03;106940;1270;22453;-49
2024/04/09 00:52:55;;;;;;;;;;;;;;;15.27;91.19;100352.67;106992;1271;22520;-50
2024/04/09 00:55:25;;;;;;;;;;;;;;;15.27;91.56;100345.04;106893;1267;22537;-44
2024/04/09 00:57:56;;;;;;;;;;;;;;;15.26;91.75;100334.27;106955;1268;22468;-46
2024/04/09 01:00:23;;;;;;;;;;;;;;;15.27;91.91;100328.73;107026;1267;22439;-45
2024/04/09 01:02:50;;;;;;;;;;;;;;;15.26;92.01;100326.75;106885;1274;22705;-46
2024/04/09 01:05:17;;;;;;;;;;;;;;;15.26;92.04;100320.20;106844;1267;25915;-44
2024/04/09 01:07:44;;;;;;;;;;;;;;;15.25;92.20;100320.98;106920;1275;22437;-44
2024/04/09 01:10:11;;;;;;;;;;;;;;;15.24;92.20;100322.35;106858;1270;22470;-44
2024/04/09 01:12:38;;;;;;;;;;;;;;;15.22;92.16;100321.60;106948;1269;22575;-45
2024/04/09 01:15:05;;;;;;;;;;;;;;;15.21;92.17;100320.98;107027;1275;25536;-45
2024/04/09 01:17:32;;;;;;;;;;;;;;;15.20;92.16;100310.89;107070;1273;22447;-45
2024/04/09 01:19:59;;;;;;;;;;;;;;;15.18;92.08;100301.99;107168;1267;22848;-46
2024/04/09 01:22:32;;;;;;;;;;;;;;;15.16;91.85;100300.38;107058;1267;24396;-45
2024/04/09 01:25:02;;;;;;;;;;;;;;;15.14;91.85;100295.61;107090;1268;24295;-44
2024/04/09 01:27:31;;;;;;;;;;;;;;;15.11;91.61;100307.23;106994;1264;22504;-44
2024/04/09 01:30:00;;;;;;;;;;;;;;;15.09;91.32;100320.56;107049;1267;22866;-49
2024/04/09 01:32:27;;;;;;;;;;;;;;;15.06;91.12;100328.81;106963;1268;22427;-51
2024/04/09 01:34:53;;;;;;;;;;;;;;;15.01;91.17;100344.50;106967;1275;22444;-50
2024/04/09 01:37:20;;;;;;;;;;;;;;;14.96;90.94;100360.96;106845;1273;22521;-44
2024/04/09 01:39:48;;;;;;;;;;;;;;;14.91;91.07;100369.94;107057;1254;22510;-47
2024/04/09 01:42:15;;;;;;;;;;;;;;;14.88;91.35;100373.91;107052;1267;22448;-45
2024/04/09 01:44:43;;;;;;;;;;;;;;;14.88;91.57;100373.89;106984;1267;22933;-45
2024/04/09 01:47:10;;;;;;;;;;;;;;;14.89;91.54;100370.96;106931;1274;22624;-46
2024/04/09 01:49:37;;;;;;;;;;;;;;;14.88;91.34;100383.52;107007;1275;22605;-44
2024/04/09 01:52:04;;;;;;;;;;;;;;;14.84;91.30;100400.04;107033;1268;25347;-44
2024/04/09 01:54:31;;;;;;;;;;;;;;;14.81;91.28;100395.10;107002;1269;22527;-43
2024/04/09 01:56:57;;;;;;;;;;;;;;;14.77;91.20;100394.73;107008;1272;24190;-43
2024/04/09 01:59:24;;;;;;;;;;;;;;;14.73;91.35;100394.84;106969;1269;22493;-44
2024/04/09 02:01:50;;;;;;;;;;;;;;;14.69;91.46;100391.45;106986;1272;25465;-45
2024/04/09 02:04:17;;;;;;;;;;;;;;;14.67;91.64;100378.42;106512;1270;380396;-45
2024/04/09 02:06:44;;;;;;;;;;;;;;;14.66;91.59;100374.05;106875;1270;22443;-46
2024/04/09 02:09:13;;;;;;;;;;;;;;;14.68;91.71;100368.79;106917;1267;24174;-43
2024/04/09 02:11:43;;;;;;;;;;;;;;;14.70;92.11;100352.44;106916;1267;22503;-46
2024/04/09 02:14:10;;;;;;;;;;;;;;;14.72;92.25;100342.10;106985;1267;22563;-45
2024/04/09 02:16:40;;;;;;;;;;;;;;;14.74;92.28;100343.30;107063;1269;22787;-46
2024/04/09 02:19:06;;;;;;;;;;;;;;;14.76;92.31;100345.17;107041;1267;22508;-46
2024/04/09 02:21:33;;;;;;;;;;;;;;;14.76;92.30;100344.45;107062;1269;22518;-44
2024/04/09 02:24:01;;;;;;;;;;;;;;;14.75;92.34;100351.31;107088;1267;25895;-46
2024/04/09 02:26:29;;;;;;;;;;;;;;;14.74;92.23;100349.77;107240;1271;22516;-47
2024/04/09 02:28:56;;;;;;;;;;;;;;;14.72;91.99;100347.45;106939;1267;24238;-48
2024/04/09 02:31:22;;;;;;;;;;;;;;;14.69;92.02;100339.86;106913;1268;25259;-48
2024/04/09 02:33:50;;;;;;;;;;;;;;;14.67;91.91;100340.38;106890;1268;22536;-46
2024/04/09 02:36:16;;;;;;;;;;;;;;;14.66;91.85;100345.33;106903;1267;24232;-47
2024/04/09 02:38:43;;;;;;;;;;;;;;;14.64;92.03;100348.63;107036;1272;25288;-44
2024/04/09 02:41:14;;;;;;;;;;;;;;;14.63;91.97;100348.92;107079;1273;22439;-46
2024/04/09 02:43:42;;;;;;;;;;;;;;;14.62;92.05;100362.90;107063;1268;25953;-45
2024/04/09 02:46:09;;;;;;;;;;;;;;;14.59;92.25;100367.52;106959;1269;25323;-44
2024/04/09 02:48:35;;;;;;;;;;;;;;;14.57;92.34;100371.39;106836;1269;24628;-50
2024/04/09 02:51:03;;;;;;;;;;;;;;;14.56;92.25;100395.33;106992;1268;22460;-47
2024/04/09 02:53:32;;;;;;;;;;;;;;;14.55;92.39;100406.77;107136;1268;23907;-46
2024/04/09 02:56:02;;;;;;;;;;;;;;;14.53;92.16;100423.07;107062;1268;22499;-48
2024/04/09 02:58:29;;;;;;;;;;;;;;;14.52;91.83;100438.27;106978;1267;25437;-47
2024/04/09 03:01:04;;;;;;;;;;;;;;;14.52;91.93;100433.66;106839;1267;24282;-45
2024/04/09 03:03:31;;;;;;;;;;;;;;;14.51;91.93;100424.50;107066;1267;25893;-48
2024/04/09 03:06:07;;;;;;;;;;;;;;;14.49;91.93;100424.48;107047;1269;25351;-45
2024/04/09 03:08:34;;;;;;;;;;;;;;;14.46;91.72;100421.88;106915;1267;24145;-44
2024/04/09 03:11:10;;;;;;;;;;;;;;;14.43;91.81;100426.05;106951;1274;22904;-44
2024/04/09 03:13:37;;;;;;;;;;;;;;;14.38;91.70;100434.01;107083;1267;22556;-45
2024/04/09 03:16:11;;;;;;;;;;;;;;;14.35;91.89;100436.20;107042;1267;25374;-45
2024/04/09 03:18:38;;;;;;;;;;;;;;;14.34;92.02;100436.70;106854;1272;25396;-48
2024/04/09 03:21:07;;;;;;;;;;;;;;;14.34;92.06;100448.09;107005;1272;22505;-48
2024/04/09 03:23:40;;;;;;;;;;;;;;;14.33;92.38;100454.70;106997;1270;22439;-44
2024/04/09 03:26:09;;;;;;;;;;;;;;;14.32;92.38;100456.56;106955;1274;22488;-45
2024/04/09 03:28:35;;;;;;;;;;;;;;;14.31;92.46;100457.17;106900;1270;22505;-44
2024/04/09 03:31:02;;;;;;;;;;;;;;;14.30;92.46;100460.13;107036;1268;25344;-44
2024/04/09 03:33:29;;;;;;;;;;;;;;;14.27;92.49;100457.45;107168;1267;22457;-44
2024/04/09 03:35:57;;;;;;;;;;;;;;;14.25;92.61;100452.34;107168;1267;22446;-44
2024/04/09 03:38:23;;;;;;;;;;;;;;;14.23;92.90;100441.10;107109;1268;25221;-44
2024/04/09 03:40:53;;;;;;;;;;;;;;;14.23;93.07;100435.24;106933;1260;22490;-44
2024/04/09 03:43:22;;;;;;;;;;;;;;;14.24;93.21;100428.56;106949;1267;25278;-44
2024/04/09 03:46:08;;;;;;;;;;;;;;;14.25;93.45;100432.91;106989;1267;22506;-45
2024/04/09 03:48:37;;;;;;;;;;;;;;;14.27;93.38;100428.89;106924;1268;25858;-44
2024/04/09 03:51:05;;;;;;;;;;;;;;;14.28;93.44;100429.16;106966;1268;24173;-45
2024/04/09 03:53:32;;;;;;;;;;;;;;;14.29;93.34;100425.14;106873;1272;24398;-44
2024/04/09 03:55:59;;;;;;;;;;;;;;;14.30;93.41;100416.34;106917;1274;22641;-44
2024/04/09 03:58:27;;;;;;;;;;;;;;;14.33;93.41;100412.05;107004;1268;24203;-44
2024/04/09 04:00:57;;;;;;;;;;;;;;;14.33;93.44;100415.23;107010;1268;22492;-45
2024/04/09 04:03:25;;;;;;;;;;;;;;;14.32;93.40;100415.71;106995;1269;22502;-43
2024/04/09 04:05:55;;;;;;;;;;;;;;;14.29;93.21;100418.39;106880;1268;24145;-46
2024/04/09 04:08:27;;;;;;;;;;;;;;;14.26;93.31;100429.33;107136;1267;22425;-44
2024/04/09 04:10:54;;;;;;;;;;;;;;;14.23;93.23;100438.07;107109;1261;25498;-46
2024/04/09 04:13:22;;;;;;;;;;;;;;;14.21;93.37;100437.20;107011;1268;25348;-44
2024/04/09 04:16:07;;;;;;;;;;;;;;;14.20;93.44;100443.27;106964;1267;24470;-45
2024/04/09 04:18:36;;;;;;;;;;;;;;;14.21;93.61;100456.20;107069;1268;23201;-46
2024/04/09 04:21:04;;;;;;;;;;;;;;;14.22;93.64;100464.47;107147;1267;24116;-47
2024/04/09 04:23:33;;;;;;;;;;;;;;;14.22;93.78;100469.84;107228;1275;23893;-46
2024/04/09 04:26:03;;;;;;;;;;;;;;;14.22;94.06;100472.84;107034;1275;25298;-46
2024/04/09 04:28:30;;;;;;;;;;;;;;;14.19;94.06;100481.55;107053;1268;25197;-45
2024/04/09 04:30:56;;;;;;;;;;;;;;;14.18;94.23;100497.84;107003;1274;24199;-44
2024/04/09 04:33:23;;;;;;;;;;;;;;;14.15;94.37;100512.58;106950;1269;22621;-44
2024/04/09 04:35:51;;;;;;;;;;;;;;;14.14;94.64;100518.34;106974;1271;22474;-44
2024/04/09 04:38:18;;;;;;;;;;;;;;;14.13;94.77;100531.23;106842;1274;22516;-43
2024/04/09 04:40:45;;;;;;;;;;;;;;;14.12;95.02;100539.98;107008;1268;22550;-45
2024/04/09 04:43:13;;;;;;;;;;;;;;;14.11;95.10;100546.50;107085;1268;23262;-44
2024/04/09 04:45:40;;;;;;;;;;;;;;;14.10;95.37;100556.85;106941;1271;25370;-44
2024/04/09 04:48:07;;;;;;;;;;;;;;;14.11;95.42;100557.14;106906;1270;22425;-44
2024/04/09 04:50:34;;;;;;;;;;;;;;;14.13;95.45;100564.16;106984;1268;22428;-44
2024/04/09 04:53:01;;;;;;;;;;;;;;;14.15;95.39;100566.28;106883;1267;22523;-45
2024/04/09 04:55:27;;;;;;;;;;;;;;;14.14;95.39;100575.02;106924;1271;22532;-43
2024/04/09 04:57:54;;;;;;;;;;;;;;;14.13;94.81;100580.77;107016;1267;22522;-46
2024/04/09 05:00:21;;;;;;;;;;;;;;;14.12;94.56;100581.23;106984;1271;22798;-43
2024/04/09 05:02:48;;;;;;;;;;;;;;;14.11;94.34;100582.73;106918;1267;22639;-46
2024/04/09 05:05:15;;;;;;;;;;;;;;;14.09;94.21;100587.13;107160;1267;23677;-43
2024/04/09 05:07:42;;;;;;;;;;;;;;;14.08;93.97;100587.11;107079;1267;24250;-44
2024/04/09 05:10:12;;;;;;;;;;;;;;;14.06;93.89;100584.70;107058;1268;22688;-43
2024/04/09 05:12:39;;;;;;;;;;;;;;;14.04;93.48;100590.89;107001;1253;22483;-45
2024/04/09 05:15:09;;;;;;;;;;;;;;;14.02;93.32;100582.19;106976;1268;22683;-43
2024/04/09 05:17:36;;;;;;;;;;;;;;;14.02;93.31;100579.54;106825;1268;22773;-43
2024/04/09 05:20:04;;;;;;;;;;;;;;;14.02;93.12;100578.16;106945;1268;22448;-45
2024/04/09 05:22:30;;;;;;;;;;;;;;;14.00;93.10;100576.65;106985;1269;22523;-44
2024/04/09 05:24:57;;;;;;;;;;;;;;;13.99;93.09;100579.39;106947;1267;22682;-44
2024/04/09 05:27:23;;;;;;;;;;;;;;;13.98;93.06;100588.86;106908;1269;22505;-44
2024/04/09 05:29:50;;;;;;;;;;;;;;;13.97;93.02;100590.50;107080;1271;22459;-44
2024/04/09 05:32:16;;;;;;;;;;;;;;;13.94;92.92;100588.11;107002;1267;25226;-43
2024/04/09 05:34:43;;;;;;;;;;;;;;;13.93;92.89;100587.63;106811;1267;24210;-44
2024/04/09 05:37:11;;;;;;;;;;;;;;;13.93;92.80;100589.08;106902;1269;22435;-45
2024/04/09 05:39:40;;;;;;;;;;;;;;;13.91;92.80;100588.48;106915;1267;22692;-44
2024/04/09 05:42:06;;;;;;;;;;;;;;;13.89;92.59;100586.90;107000;1268;22441;-46
2024/04/09 05:44:33;;;;;;;;;;;;;;;13.87;92.30;100593.20;107014;1267;24179;-44
2024/04/09 05:47:02;;;;;;;;;;;;;;;13.86;92.07;100592.96;106925;1268;22560;-43
2024/04/09 05:49:28;;;;;;;;;;;;;;;13.84;91.94;100592.20;106873;1271;24027;-43
2024/04/09 05:51:55;;;;;;;;;;;;;;;13.84;91.99;100589.23;106855;1268;22428;-48
2024/04/09 05:54:24;;;;;;;;;;;;;;;13.82;91.65;100583.55;106991;1275;25388;-46
2024/04/09 05:56:51;;;;;;;;;;;;;;;13.78;91.46;100582.55;106988;1273;23769;-46
2024/04/09 05:59:18;;;;;;;;;;;;;;;13.72;90.96;100597.35;106945;1267;25338;-48
2024/04/09 06:01:44;;;;;;;;;;;;;;;13.69;91.00;100600.63;106892;1267;25384;-44
2024/04/09 06:04:11;;;;;;;;;;;;;;;13.66;90.86;100602.59;106985;1271;22426;-48
2024/04/09 06:06:42;;;;;;;;;;;;;;;13.62;90.72;100607.48;106991;1275;22508;-49
2024/04/09 06:09:08;;;;;;;;;;;;;;;13.63;90.68;100612.27;107166;1267;22515;-48
2024/04/09 06:11:35;;;;;;;;;;;;;;;13.61;90.61;100623.37;107042;1268;22523;-45
2024/04/09 06:14:02;;;;;;;;;;;;;;;13.59;90.31;100628.71;106968;1271;24145;-45
2024/04/09 06:16:28;;;;;;;;;;;;;;;13.55;90.13;100637.65;107001;1267;22625;-48
2024/04/09 06:18:55;;;;;;;;;;;;;;;13.52;90.34;100636.98;107019;1274;24066;-45
2024/04/09 06:21:22;;;;;;;;;;;;;;;13.49;90.30;100633.98;106983;1275;24181;-45
2024/04/09 06:23:48;;;;;;;;;;;;;;;13.46;90.51;100635.83;106965;1272;24205;-45
2024/04/09 06:26:18;;;;;;;;;;;;;;;13.45;90.68;100636.11;107038;1271;22527;-45
2024/04/09 06:28:47;;;;;;;;;;;;;;;13.43;90.52;100634.81;106899;1268;24197;-45
2024/04/09 06:31:14;;;;;;;;;;;;;;;13.42;90.68;100635.58;106848;1274;24037;-44
2024/04/09 06:33:40;;;;;;;;;;;;;;;13.42;90.41;100622.11;106848;1271;22620;-44
2024/04/09 06:36:07;;;;;;;;;;;;;;;13.40;90.18;100619.24;106892;1267;23013;-45
2024/04/09 06:38:43;;;;;;;;;;;;;;;13.41;90.24;100615.08;106912;1274;22462;-45
2024/04/09 06:41:10;;;;;;;;;;;;;;;13.42;90.05;100609.16;107013;1275;22522;-45
2024/04/09 06:43:37;;;;;;;;;;;;;;;13.42;89.05;100609.34;106954;1275;22606;-44
2024/04/09 06:46:04;;;;;;;;;;;;;;;13.40;88.46;100613.88;107042;1266;22486;-44
2024/04/09 06:48:31;;;;;;;;;;;;;;;13.38;88.25;100615.27;107174;1274;22511;-46
2024/04/09 06:51:01;;;;;;;;;;;;;;;13.38;88.32;100628.59;106939;1271;22565;-44
2024/04/09 06:53:28;;;;;;;;;;;;;;;13.39;88.17;100636.20;107195;1273;24363;-50
2024/04/09 06:55:54;;;;;;;;;;;;;;;13.36;87.84;100640.27;107038;1273;24132;-51
2024/04/09 06:58:21;;;;;;;;;;;;;;;13.33;86.78;100644.05;106960;1273;25062;-51
2024/04/09 07:00:48;;;;;;;;;;;;;;;13.29;85.98;100647.88;106926;1273;22625;-49
2024/04/09 07:03:15;;;;;;;;;;;;;;;13.26;84.61;100658.52;107146;1265;22506;-44
2024/04/09 07:05:42;;;;;;;;;;;;;;;13.24;83.29;100662.77;107013;1273;25365;-46
2024/04/09 07:08:12;;;;;;;;;;;;;;;13.22;82.52;100668.56;106911;1270;24245;-44
2024/04/09 07:10:38;;;;;;;;;;;;;;;13.21;82.27;100669.51;106846;1275;23871;-44
2024/04/09 07:13:05;;;;;;;;;;;;;;;13.21;82.23;100676.27;106897;1275;22515;-44
2024/04/09 07:15:32;;;;;;;;;;;;;;;13.19;81.16;100679.60;106943;1271;22548;-45
2024/04/09 07:17:58;;;;;;;;;;;;;;;13.14;80.60;100678.14;106986;1275;22495;-46
2024/04/09 07:20:25;;;;;;;;;;;;;;;13.11;79.91;100676.80;106941;1274;24309;-49
2024/04/09 07:22:55;;;;;;;;;;;;;;;13.07;78.99;100682.54;107176;1275;24379;-47
2024/04/09 07:25:22;;;;;;;;;;;;;;;13.04;78.86;100684.21;107090;1268;24190;-45
2024/04/09 07:27:48;;;;;;;;;;;;;;;13.00;78.74;100688.49;106958;1275;22516;-44
2024/04/09 07:30:15;;;;;;;;;;;;;;;12.99;79.02;100697.13;106971;1273;24053;-45
2024/04/09 07:32:41;;;;;;;;;;;;;;;12.97;79.38;100697.95;107007;1275;22516;-46
2024/04/09 07:35:11;;;;;;;;;;;;;;;12.98;79.81;100701.48;107115;1274;22425;-45
2024/04/09 07:37:38;;;;;;;;;;;;;;;12.97;79.07;100703.82;107135;1274;22597;-46
2024/04/09 07:40:06;;;;;;;;;;;;;;;12.94;77.70;100707.02;107140;1268;22443;-47
2024/04/09 07:42:33;;;;;;;;;;;;;;;12.92;76.69;100709.80;107028;1271;22518;-45
2024/04/09 07:44:59;;;;;;;;;;;;;;;12.87;75.93;100713.85;107092;1274;22517;-47
2024/04/09 07:47:26;;;;;;;;;;;;;;;12.85;75.09;100718.61;107033;1268;22502;-44
2024/04/09 07:49:53;;;;;;;;;;;;;;;12.84;75.06;100720.48;106957;1274;25347;-45
2024/04/09 07:52:19;;;;;;;;;;;;;;;12.86;75.07;100723.91;106929;1274;22619;-44
2024/04/09 07:54:50;;;;;;;;;;;;;;;12.87;74.67;100721.89;106996;1274;24197;-45
2024/04/09 07:57:18;;;;;;;;;;;;;;;12.90;74.78;100726.80;106943;1259;25194;-45
2024/04/09 07:59:45;;;;;;;;;;;;;;;12.94;74.61;100735.21;106948;1274;22430;-45
2024/04/09 08:02:12;;;;;;;;;;;;;;;12.97;74.55;100730.77;106952;1275;24205;-46
2024/04/09 08:04:39;;;;;;;;;;;;;;;13.02;74.21;100736.48;106828;1275;25393;-45
2024/04/09 08:07:07;;;;;;;;;;;;;;;13.04;73.10;100733.46;107066;1273;22428;-45
2024/04/09 08:09:35;;;;;;;;;;;;;;;13.05;72.10;100743.20;107121;1272;24257;-44
2024/04/09 08:12:01;;;;;;;;;;;;;;;13.05;72.39;100756.83;106840;1272;22809;-46
2024/04/09 08:14:30;;;;;;;;;;;;;;;13.06;72.25;100763.32;106915;1275;22443;-46
2024/04/09 08:16:57;;;;;;;;;;;;;;;13.07;71.98;100764.31;107086;1275;25228;-45
2024/04/09 08:19:23;;;;;;;;;;;;;;;13.07;71.89;100760.21;106963;1275;25238;-46
2024/04/09 08:21:50;;;;;;;;;;;;;;;13.07;71.79;100753.28;107026;1274;25365;-45
2024/04/09 08:24:17;;;;;;;;;;;;;;;13.09;71.84;100756.40;107069;1274;22780;-44
2024/04/09 08:26:44;;;;;;;;;;;;;;;13.10;71.62;100759.49;106850;1275;22448;-44
2024/04/09 08:29:15;;;;;;;;;;;;;;;13.10;71.54;100773.88;106853;1275;22431;-44
2024/04/09 08:31:45;;;;;;;;;;;;;;;13.09;71.35;100784.57;106959;1274;22511;-44
2024/04/09 08:34:11;;;;;;;;;;;;;;;13.09;71.42;100793.45;106868;1275;22984;-45
2024/04/09 08:36:42;;;;;;;;;;;;;;;13.09;70.85;100806.55;106810;1275;22455;-45
2024/04/09 08:39:08;;;;;;;;;;;;;;;13.10;70.82;100816.47;106831;1275;25266;-45
2024/04/09 08:41:35;;;;;;;;;;;;;;;13.12;71.01;100828.36;106876;1274;25425;-44
2024/04/09 08:44:03;;;;;;;;;;;;;;;13.16;70.77;100824.94;106843;1268;22497;-46
2024/04/09 08:46:32;;;;;;;;;;;;;;;13.18;70.77;100829.59;106815;1274;24166;-44
2024/04/09 08:48:59;;;;;;;;;;;;;;;13.21;70.61;100818.05;106990;1275;25445;-46
2024/04/09 08:51:26;;;;;;;;;;;;;;;13.23;70.16;100823.55;106686;1275;22893;-45
2024/04/09 08:53:54;;;;;;;;;;;;;;;13.25;70.04;100823.99;106999;1274;24343;-44
2024/04/09 08:56:20;;;;;;;;;;;;;;;13.26;69.40;100830.78;106869;1274;22631;-44
2024/04/09 08:58:47;;;;;;;;;;;;;;;13.28;69.20;100838.34;106820;1274;25825;-48
2024/04/09 09:01:26;;;;;;;;;;;;;;;13.30;69.22;100843.70;106870;1274;22492;-46
2024/04/09 09:03:53;;;;;;;;;;;;;;;13.33;68.71;100841.55;106903;1274;24141;-44
2024/04/09 09:06:19;;;;;;;;;;;;;;;13.33;66.60;100829.27;107066;1273;22804;-45
2024/04/09 09:08:46;;;;;;;;;;;;;;;13.33;65.75;100831.80;106996;1267;25198;-46
2024/04/09 09:11:22;;;;;;;;;;;;;;;13.35;65.88;100839.30;107031;1271;24159;-48
2024/04/09 09:13:49;;;;;;;;;;;;;;;13.41;65.44;100848.50;106957;1271;22430;-45
2024/04/09 09:16:16;;;;;;;;;;;;;;;13.47;64.62;100842.56;106882;1267;22499;-45
2024/04/09 09:18:43;;;;;;;;;;;;;;;13.53;63.68;100835.05;106884;1275;22428;-44
2024/04/09 09:21:11;;;;;;;;;;;;;;;13.58;63.60;100834.88;106914;1274;22558;-44
2024/04/09 09:23:38;;;;;;;;;;;;;;;13.67;63.30;100831.92;107019;1271;24314;-45
2024/04/09 09:26:06;;;;;;;;;;;;;;;13.74;62.45;100829.15;106913;1269;24171;-46
2024/04/09 09:28:32;;;;;;;;;;;;;;;13.82;63.31;100834.96;107017;1272;25178;-46
2024/04/09 09:30:59;;;;;;;;;;;;;;;13.90;63.47;100837.40;107082;1269;25191;-47
2024/04/09 09:33:26;;;;;;;;;;;;;;;14.03;63.59;100843.30;106953;1268;25849;-47
2024/04/09 09:35:53;;;;;;;;;;;;;;;14.10;61.76;100842.59;106986;1271;22866;-48
2024/04/09 09:38:21;;;;;;;;;;;;;;;14.13;60.17;100846.11;107109;1267;25844;-47
2024/04/09 09:40:51;;;;;;;;;;;;;;;14.18;59.82;100843.10;106939;1275;22643;-47
2024/04/09 09:43:19;;;;;;;;;;;;;;;14.21;58.06;100844.12;106901;1268;25212;-45
2024/04/09 09:45:45;;;;;;;;;;;;;;;14.29;59.03;100844.11;107010;1274;24617;-49
2024/04/09 09:48:12;;;;;;;;;;;;;;;14.39;58.56;100846.33;106929;1275;25281;-51
2024/04/09 09:50:42;;;;;;;;;;;;;;;14.52;58.56;100856.14;106701;1274;22428;-51
2024/04/09 09:53:09;;;;;;;;;;;;;;;14.59;58.17;100867.91;106987;1274;24253;-51
2024/04/09 09:55:36;;;;;;;;;;;;;;;14.62;58.08;100868.39;107021;1274;22442;-44
2024/04/09 09:58:03;;;;;;;;;;;;;;;14.64;57.29;100872.75;107051;1274;24384;-44
2024/04/09 10:00:30;;;;;;;;;;;;;;;14.60;56.92;100882.41;107137;1275;22664;-46
2024/04/09 10:02:58;;;;;;;;;;;;;;;14.58;56.89;100897.68;107046;1274;24274;-45
2024/04/09 10:05:28;;;;;;;;;;;;;;;14.57;56.92;100905.23;107016;1274;22645;-46
2024/04/09 10:07:55;;;;;;;;;;;;;;;14.60;57.15;100909.64;107162;1271;24156;-47
2024/04/09 10:10:25;;;;;;;;;;;;;;;14.62;56.26;100906.46;106956;1274;22495;-46
2024/04/09 10:12:53;;;;;;;;;;;;;;;14.64;56.67;100900.14;106928;1274;25340;-45
2024/04/09 10:15:30;;;;;;;;;;;;;;;14.68;56.80;100899.06;106933;1274;22639;-44
2024/04/09 10:18:04;;;;;;;;;;;;;;;14.73;56.53;100898.54;106903;1275;24460;-45
2024/04/09 10:20:35;;;;;;;;;;;;;;;14.73;55.56;100907.94;106983;1274;22495;-44
2024/04/09 10:23:05;;;;;;;;;;;;;;;14.70;55.20;100910.34;106975;1274;24323;-45
2024/04/09 10:25:38;;;;;;;;;;;;;;;14.69;54.87;100905.06;107025;1274;23952;-47
2024/04/09 10:28:09;;;;;;;;;;;;;;;14.66;55.08;100900.64;106983;1274;22625;-45
2024/04/09 10:30:40;;;;;;;;;;;;;;;14.67;55.10;100903.98;107112;1274;23240;-46
2024/04/09 10:33:08;;;;;;;;;;;;;;;14.69;55.37;100900.60;107045;1274;22545;-46
2024/04/09 10:35:35;;;;;;;;;;;;;;;14.73;55.56;100905.29;106988;1274;22798;-46
2024/04/09 10:38:05;;;;;;;;;;;;;;;14.80;55.40;100906.42;107142;1274;22571;-47
2024/04/09 10:40:36;;;;;;;;;;;;;;;14.88;54.75;100899.59;106927;1275;22491;-45
2024/04/09 10:43:06;;;;;;;;;;;;;;;14.93;53.41;100900.48;106965;1275;22515;-45
2024/04/09 10:45:33;;;;;;;;;;;;;;;14.92;53.32;100900.02;106908;1268;25192;-44
2024/04/09 10:48:10;;;;;;;;;;;;;;;14.93;53.30;100912.20;106913;1273;22450;-53
2024/04/09 10:50:37;;;;;;;;;;;;;;;14.94;52.55;100918.71;106952;1273;25961;-44
2024/04/09 10:53:04;;;;;;;;;;;;;;;14.91;52.36;100923.06;106917;1275;22547;-44
2024/04/09 10:55:31;;;;;;;;;;;;;;;14.91;53.01;100927.27;107050;1274;24386;-46
2024/04/09 10:57:58;;;;;;;;;;;;;;;14.94;52.91;100930.25;107117;1274;24196;-44
2024/04/09 11:00:25;;;;;;;;;;;;;;;14.96;52.95;100940.44;106958;1273;24354;-45
2024/04/09 11:02:52;;;;;;;;;;;;;;;15.02;53.44;100944.11;107077;1275;25470;-47
2024/04/09 11:05:19;;;;;;;;;;;;;;;15.07;53.17;100945.00;107046;1273;23003;-46
2024/04/09 11:07:48;;;;;;;;;;;;;;;15.09;52.79;100946.11;107013;1273;22511;-47
2024/04/09 11:10:15;;;;;;;;;;;;;;;15.09;52.58;100947.89;107121;1274;22512;-45
2024/04/09 11:12:46;;;;;;;;;;;;;;;15.06;51.97;100941.66;107043;1274;24022;-46
2024/04/09 11:15:14;;;;;;;;;;;;;;;15.04;51.22;100938.11;106951;1275;24354;-46
2024/04/09 11:17:41;;;;;;;;;;;;;;;14.99;51.30;100941.11;106903;1275;24067;-45
2024/04/09 11:20:14;;;;;;;;;;;;;;;14.97;51.03;100940.38;106863;1274;22480;-47
2024/04/09 11:22:41;;;;;;;;;;;;;;;15.00;51.47;100946.39;106880;1275;24181;-47
2024/04/09 11:25:15;;;;;;;;;;;;;;;15.04;51.65;100955.94;106935;1274;25419;-46
2024/04/09 11:27:50;;;;;;;;;;;;;;;15.06;52.09;100958.10;106938;1274;22497;-47
2024/04/09 11:30:24;;;;;;;;;;;;;;;15.08;52.26;100956.46;107087;1275;24241;-47
2024/04/09 11:32:51;;;;;;;;;;;;;;;15.12;52.37;100955.83;107149;1274;23217;-46
2024/04/09 11:35:20;;;;;;;;;;;;;;;15.15;51.16;100959.20;107151;1275;22641;-52
2024/04/09 11:37:55;;;;;;;;;;;;;;;15.10;50.94;100971.50;107451;1273;24161;-53
2024/04/09 11:40:22;;;;;;;;;;;;;;;15.05;51.12;100972.92;107095;1271;24170;-53
2024/04/09 11:42:50;;;;;;;;;;;;;;;15.01;50.83;100978.52;107176;1274;22449;-51
2024/04/09 11:45:18;;;;;;;;;;;;;;;14.98;51.12;100986.23;106924;1268;22667;-53
2024/04/09 11:47:45;;;;;;;;;;;;;;;14.94;51.23;100974.20;106941;1274;22627;-51
2024/04/09 11:50:12;;;;;;;;;;;;;;;14.96;51.18;100981.38;106908;1274;22441;-49
2024/04/09 11:52:39;;;;;;;;;;;;;;;14.97;51.18;100983.76;106916;1275;25170;-53
2024/04/09 11:55:06;;;;;;;;;;;;;;;15.00;51.03;100983.74;106913;1268;22751;-52
2024/04/09 11:57:36;;;;;;;;;;;;;;;15.06;51.44;100983.33;106908;1273;22495;-50
2024/04/09 12:00:04;;;;;;;;;;;;;;;15.10;50.96;100979.44;106893;1274;22500;-52
2024/04/09 12:02:31;;;;;;;;;;;;;;;15.10;50.42;100988.55;106971;1275;25192;-50
2024/04/09 12:04:58;;;;;;;;;;;;;;;15.09;50.04;100978.30;106926;1264;22633;-49
2024/04/09 12:07:25;;;;;;;;;;;;;;;15.05;50.18;100976.66;106984;1273;23878;-49
2024/04/09 12:09:52;;;;;;;;;;;;;;;15.06;50.83;100974.61;106983;1274;22917;-50
2024/04/09 12:12:19;;;;;;;;;;;;;;;15.08;50.68;100978.16;106962;1273;24253;-50
2024/04/09 12:14:46;;;;;;;;;;;;;;;15.12;50.91;100984.69;106890;1274;22495;-50
2024/04/09 12:17:13;;;;;;;;;;;;;;;15.17;50.47;100992.80;106875;1274;25221;-49
2024/04/09 12:19:40;;;;;;;;;;;;;;;15.23;50.21;100984.03;106895;1274;22510;-51
2024/04/09 12:22:08;;;;;;;;;;;;;;;15.27;50.52;100988.91;107027;1273;22501;-51
2024/04/09 12:24:35;;;;;;;;;;;;;;;15.33;49.72;100993.09;106937;1274;24205;-49
2024/04/09 12:27:03;;;;;;;;;;;;;;;15.31;48.71;101000.20;106989;1274;25495;-53
2024/04/09 12:29:30;;;;;;;;;;;;;;;15.27;48.95;100995.01;107122;1274;22498;-49